sensor_id;sensor_type;location;lat;lon;timestamp;pressure;altitude;pressure_sealevel;temperature;humidity
32735;BME280;19112;51.076;3.706;2023-03-01T00:00:22;102698.28;;;1.97;51.45
32735;BME280;19112;51.076;3.706;2023-03-01T00:02:50;102802.34;;;2.55;51.82
32735;BME280;19112;51.076;3.706;2023-03-01T00:05:17;102668.44;;;1.75;52.17
32735;BME280;19112;51.076;3.706;2023-03-01T00:07:43;103013.44;;;3.63;52.50
32735;BME280;19112;51.076;3.706;2023-03-01T00:10:15;102709.22;;;2.03;52.67
32735;BME280;19112;51.076;3.706;2023-03-01T00:12:41;102754.44;;;2.24;52.71
32735;BME280;19112;51.076;3.706;2023-03-01T00:15:31;103005.75;;;3.73;52.43
32735;BME280;19112;51.076;3.706;2023-03-01T00:18:02;102778.75;;;2.44;52.59
32735;BME280;19112;51.076;3.706;2023-03-01T00:20:30;102957.91;;;3.44;52.94
32735;BME280;19112;51.076;3.706;2023-03-01T00:23:04;102830.09;;;2.65;53.19
32735;BME280;19112;51.076;3.706;2023-03-01T00:25:44;102960.97;;;3.39;53.45
32735;BME280;19112;51.076;3.706;2023-03-01T00:28:21;103034.81;;;3.69;53.26
32735;BME280;19112;51.076;3.706;2023-03-01T00:31:27;103011.88;;;3.65;53.56
32735;BME280;19112;51.076;3.706;2023-03-01T00:34:02;102948.38;;;3.17;53.96
32735;BME280;19112;51.076;3.706;2023-03-01T00:36:39;102709.41;;;1.79;54.66
32735;BME280;19112;51.076;3.706;2023-03-01T00:39:32;102806.56;;;2.27;55.26
32735;BME280;19112;51.076;3.706;2023-03-01T00:42:02;102969.91;;;3.15;55.78
32735;BME280;19112;51.076;3.706;2023-03-01T00:44:49;102785.84;;;2.01;56.05
32735;BME280;19112;51.076;3.706;2023-03-01T00:47:16;102787.06;;;1.96;56.94
32735;BME280;19112;51.076;3.706;2023-03-01T00:49:48;102896.16;;;2.69;56.60
32735;BME280;19112;51.076;3.706;2023-03-01T00:52:42;102860.63;;;2.50;57.21
32735;BME280;19112;51.076;3.706;2023-03-01T00:55:28;102920.34;;;2.86;57.10
32735;BME280;19112;51.076;3.706;2023-03-01T00:58:14;102719.16;;;1.73;57.17
32735;BME280;19112;51.076;3.706;2023-03-01T01:00:49;102938.97;;;2.91;57.22
32735;BME280;19112;51.076;3.706;2023-03-01T01:03:16;102834.28;;;2.28;57.74
32735;BME280;19112;51.076;3.706;2023-03-01T01:05:45;102991.44;;;3.14;57.75
32735;BME280;19112;51.076;3.706;2023-03-01T01:08:29;102470.44;;;0.30;57.80
32735;BME280;19112;51.076;3.706;2023-03-01T01:10:55;102823.94;;;2.20;58.30
32735;BME280;19112;51.076;3.706;2023-03-01T01:13:22;102983.22;;;3.10;59.00
32735;BME280;19112;51.076;3.706;2023-03-01T01:19:03;102929.38;;;2.81;59.31
32735;BME280;19112;51.076;3.706;2023-03-01T01:21:29;102691.63;;;1.39;60.09
32735;BME280;19112;51.076;3.706;2023-03-01T01:24:02;102828.50;;;2.22;60.75
32735;BME280;19112;51.076;3.706;2023-03-01T01:26:31;102894.50;;;2.52;61.19
32735;BME280;19112;51.076;3.706;2023-03-01T01:28:58;102939.31;;;2.68;62.20
32735;BME280;19112;51.076;3.706;2023-03-01T01:31:26;102882.44;;;2.44;62.30
32735;BME280;19112;51.076;3.706;2023-03-01T01:34:02;102838.56;;;2.28;62.96
32735;BME280;19112;51.076;3.706;2023-03-01T01:36:30;102685.38;;;1.45;62.66
32735;BME280;19112;51.076;3.706;2023-03-01T01:38:57;102917.31;;;2.82;62.15
32735;BME280;19112;51.076;3.706;2023-03-01T01:41:25;102966.22;;;3.13;61.90
32735;BME280;19112;51.076;3.706;2023-03-01T01:47:14;102905.56;;;2.94;61.89
32735;BME280;19112;51.076;3.706;2023-03-01T01:49:54;102876.19;;;2.68;61.56
32735;BME280;19112;51.076;3.706;2023-03-01T01:52:34;102858.63;;;2.74;61.47
32735;BME280;19112;51.076;3.706;2023-03-01T01:55:14;102800.72;;;2.47;60.95
32735;BME280;19112;51.076;3.706;2023-03-01T01:57:58;102884.59;;;3.10;60.66
32735;BME280;19112;51.076;3.706;2023-03-01T02:00:29;102681.06;;;1.98;60.16
32735;BME280;19112;51.076;3.706;2023-03-01T02:03:25;102602.56;;;1.45;59.78
32735;BME280;19112;51.076;3.706;2023-03-01T02:06:04;102936.56;;;3.29;59.93
32735;BME280;19112;51.076;3.706;2023-03-01T02:08:36;102695.22;;;1.93;60.19
32735;BME280;19112;51.076;3.706;2023-03-01T02:11:04;102933.13;;;3.11;61.21
32735;BME280;19112;51.076;3.706;2023-03-01T02:13:32;102936.00;;;3.14;60.95
32735;BME280;19112;51.076;3.706;2023-03-01T02:16:13;102642.44;;;1.56;61.14
32735;BME280;19112;51.076;3.706;2023-03-01T02:18:42;102882.34;;;2.87;60.79
32735;BME280;19112;51.076;3.706;2023-03-01T02:21:53;102928.19;;;3.23;60.47
32735;BME280;19112;51.076;3.706;2023-03-01T02:24:28;102925.03;;;3.17;60.13
32735;BME280;19112;51.076;3.706;2023-03-01T02:26:56;102916.00;;;3.13;60.07
32735;BME280;19112;51.076;3.706;2023-03-01T02:29:24;102834.25;;;2.63;60.00
32735;BME280;19112;51.076;3.706;2023-03-01T02:31:52;102915.16;;;3.04;60.62
32735;BME280;19112;51.076;3.706;2023-03-01T02:34:25;102727.84;;;1.82;61.54
32735;BME280;19112;51.076;3.706;2023-03-01T02:37:12;102901.78;;;2.73;63.13
32735;BME280;19112;51.076;3.706;2023-03-01T02:39:47;102770.34;;;1.93;63.41
32735;BME280;19112;51.076;3.706;2023-03-01T02:42:28;102696.16;;;1.58;63.44
32735;BME280;19112;51.076;3.706;2023-03-01T02:44:57;102922.81;;;2.76;63.42
32735;BME280;19112;51.076;3.706;2023-03-01T02:47:23;102610.06;;;1.08;63.42
32735;BME280;19112;51.076;3.706;2023-03-01T02:49:48;102832.47;;;2.36;64.34
32735;BME280;19112;51.076;3.706;2023-03-01T02:52:47;102677.44;;;1.52;64.26
32735;BME280;19112;51.076;3.706;2023-03-01T02:55:18;102860.94;;;2.45;64.59
32735;BME280;19112;51.076;3.706;2023-03-01T02:57:46;102871.59;;;2.65;65.14
32735;BME280;19112;51.076;3.706;2023-03-01T03:00:26;102817.50;;;2.33;65.16
32735;BME280;19112;51.076;3.706;2023-03-01T03:02:55;102751.00;;;1.98;66.07
32735;BME280;19112;51.076;3.706;2023-03-01T03:05:32;102624.66;;;1.16;66.71
32735;BME280;19112;51.076;3.706;2023-03-01T03:08:01;102754.03;;;1.85;67.88
32735;BME280;19112;51.076;3.706;2023-03-01T03:10:32;102871.44;;;2.55;67.80
32735;BME280;19112;51.076;3.706;2023-03-01T03:13:01;102791.63;;;2.07;67.67
32735;BME280;19112;51.076;3.706;2023-03-01T03:15:28;102890.69;;;2.57;67.93
32735;BME280;19112;51.076;3.706;2023-03-01T03:17:55;102719.94;;;1.63;67.70
32735;BME280;19112;51.076;3.706;2023-03-01T03:20:26;102647.78;;;1.31;68.00
32735;BME280;19112;51.076;3.706;2023-03-01T03:22:54;102786.16;;;2.04;68.32
32735;BME280;19112;51.076;3.706;2023-03-01T03:25:21;102710.34;;;1.71;68.61
32735;BME280;19112;51.076;3.706;2023-03-01T03:27:50;102606.53;;;1.16;67.80
32735;BME280;19112;51.076;3.706;2023-03-01T03:30:27;102860.91;;;2.71;67.47
32735;BME280;19112;51.076;3.706;2023-03-01T03:32:54;102610.66;;;1.31;67.33
32735;BME280;19112;51.076;3.706;2023-03-01T03:35:28;102738.00;;;2.06;67.14
32735;BME280;19112;51.076;3.706;2023-03-01T03:37:56;102813.53;;;2.46;67.50
32735;BME280;19112;51.076;3.706;2023-03-01T03:40:39;102807.44;;;2.45;67.31
32735;BME280;19112;51.076;3.706;2023-03-01T03:43:11;102662.56;;;1.50;67.06
32735;BME280;19112;51.076;3.706;2023-03-01T03:45:37;102692.38;;;1.72;67.07
32735;BME280;19112;51.076;3.706;2023-03-01T03:48:06;102535.34;;;0.85;67.30
32735;BME280;19112;51.076;3.706;2023-03-01T03:50:33;102858.47;;;2.63;67.55
32735;BME280;19112;51.076;3.706;2023-03-01T03:53:09;102777.94;;;2.08;68.18
32735;BME280;19112;51.076;3.706;2023-03-01T03:55:36;102869.03;;;2.56;68.16
32735;BME280;19112;51.076;3.706;2023-03-01T03:58:07;102526.72;;;0.67;68.12
32735;BME280;19112;51.076;3.706;2023-03-01T04:00:39;102720.25;;;1.66;67.87
32735;BME280;19112;51.076;3.706;2023-03-01T04:03:06;102567.16;;;0.92;67.56
32735;BME280;19112;51.076;3.706;2023-03-01T04:05:33;102733.19;;;1.66;67.19
32735;BME280;19112;51.076;3.706;2023-03-01T04:07:59;102895.25;;;2.42;68.15
32735;BME280;19112;51.076;3.706;2023-03-01T04:10:38;102722.81;;;1.75;67.38
32735;BME280;19112;51.076;3.706;2023-03-01T04:13:06;102710.03;;;1.76;67.33
32735;BME280;19112;51.076;3.706;2023-03-01T04:15:33;102858.03;;;2.68;67.03
32735;BME280;19112;51.076;3.706;2023-03-01T04:17:59;102336.47;;;-0.19;66.52
32735;BME280;19112;51.076;3.706;2023-03-01T04:20:29;102753.81;;;2.18;66.42
32735;BME280;19112;51.076;3.706;2023-03-01T04:23:11;102801.31;;;2.45;66.80
32735;BME280;19112;51.076;3.706;2023-03-01T04:25:54;102745.31;;;2.10;67.13
32735;BME280;19112;51.076;3.706;2023-03-01T04:28:29;102783.38;;;2.29;67.33
32735;BME280;19112;51.076;3.706;2023-03-01T04:30:58;102857.13;;;2.67;66.74
32735;BME280;19112;51.076;3.706;2023-03-01T04:33:26;102659.06;;;1.49;66.53
32735;BME280;19112;51.076;3.706;2023-03-01T04:35:52;102544.50;;;0.90;66.79
32735;BME280;19112;51.076;3.706;2023-03-01T04:38:19;102764.03;;;2.17;66.41
32735;BME280;19112;51.076;3.706;2023-03-01T04:40:45;102770.91;;;2.16;66.09
32735;BME280;19112;51.076;3.706;2023-03-01T04:43:12;102612.63;;;1.25;66.34
32735;BME280;19112;51.076;3.706;2023-03-01T04:45:41;102821.50;;;2.30;66.38
32735;BME280;19112;51.076;3.706;2023-03-01T04:48:07;102318.97;;;-0.39;66.17
32735;BME280;19112;51.076;3.706;2023-03-01T04:50:33;102846.44;;;2.55;65.82
32735;BME280;19112;51.076;3.706;2023-03-01T04:52:59;102782.63;;;2.13;66.22
32735;BME280;19112;51.076;3.706;2023-03-01T04:55:28;102845.25;;;2.52;66.14
32735;BME280;19112;51.076;3.706;2023-03-01T04:57:55;102851.66;;;2.47;65.95
32735;BME280;19112;51.076;3.706;2023-03-01T05:00:22;102604.41;;;1.12;65.79
32735;BME280;19112;51.076;3.706;2023-03-01T05:03:08;102843.25;;;2.49;65.60
32735;BME280;19112;51.076;3.706;2023-03-01T05:05:36;102739.25;;;1.84;65.92
32735;BME280;19112;51.076;3.706;2023-03-01T05:08:06;102695.84;;;1.64;65.76
32735;BME280;19112;51.076;3.706;2023-03-01T05:10:35;102836.25;;;2.40;65.57
32735;BME280;19112;51.076;3.706;2023-03-01T05:13:02;102840.09;;;2.34;65.69
32735;BME280;19112;51.076;3.706;2023-03-01T05:15:31;102787.66;;;2.02;65.43
32735;BME280;19112;51.076;3.706;2023-03-01T05:17:59;102733.19;;;1.57;66.45
32735;BME280;19112;51.076;3.706;2023-03-01T05:20:27;102789.66;;;1.96;66.62
32735;BME280;19112;51.076;3.706;2023-03-01T05:22:57;102710.97;;;1.51;66.41
32735;BME280;19112;51.076;3.706;2023-03-01T05:25:24;102824.84;;;2.12;67.25
32735;BME280;19112;51.076;3.706;2023-03-01T05:27:50;102775.66;;;1.86;67.08
32735;BME280;19112;51.076;3.706;2023-03-01T05:30:17;102818.75;;;2.11;67.16
32735;BME280;19112;51.076;3.706;2023-03-01T05:32:47;102474.25;;;0.33;66.87
32735;BME280;19112;51.076;3.706;2023-03-01T05:35:16;102570.06;;;0.87;66.78
32735;BME280;19112;51.076;3.706;2023-03-01T05:37:44;102809.63;;;2.15;67.21
32735;BME280;19112;51.076;3.706;2023-03-01T05:40:18;102664.69;;;1.45;66.70
32735;BME280;19112;51.076;3.706;2023-03-01T05:42:49;102496.44;;;0.57;66.83
32735;BME280;19112;51.076;3.706;2023-03-01T05:45:16;102776.69;;;2.22;66.53
32735;BME280;19112;51.076;3.706;2023-03-01T05:47:44;102782.78;;;2.23;66.47
32735;BME280;19112;51.076;3.706;2023-03-01T05:50:14;102478.53;;;0.59;66.20
32735;BME280;19112;51.076;3.706;2023-03-01T05:52:47;102777.00;;;2.25;66.16
32735;BME280;19112;51.076;3.706;2023-03-01T05:55:18;102668.91;;;1.53;66.15
32735;BME280;19112;51.076;3.706;2023-03-01T05:57:44;102726.13;;;1.91;66.27
32735;BME280;19112;51.076;3.706;2023-03-01T06:00:12;102692.97;;;1.78;66.13
32735;BME280;19112;51.076;3.706;2023-03-01T06:02:39;102523.66;;;0.88;65.69
32735;BME280;19112;51.076;3.706;2023-03-01T06:05:07;102671.06;;;1.66;65.90
32735;BME280;19112;51.076;3.706;2023-03-01T06:07:34;102413.47;;;0.19;65.95
32735;BME280;19112;51.076;3.706;2023-03-01T06:10:02;102778.38;;;2.22;66.20
32735;BME280;19112;51.076;3.706;2023-03-01T06:12:32;102594.53;;;1.16;66.13
32735;BME280;19112;51.076;3.706;2023-03-01T06:14:58;102778.09;;;2.19;66.20
32735;BME280;19112;51.076;3.706;2023-03-01T06:17:24;102590.59;;;1.02;66.17
32735;BME280;19112;51.076;3.706;2023-03-01T06:19:50;102470.75;;;0.41;66.41
32735;BME280;19112;51.076;3.706;2023-03-01T06:22:16;102788.91;;;2.15;66.76
32735;BME280;19112;51.076;3.706;2023-03-01T06:24:42;102755.41;;;1.99;66.59
32735;BME280;19112;51.076;3.706;2023-03-01T06:27:07;102759.06;;;1.92;66.55
32735;BME280;19112;51.076;3.706;2023-03-01T06:29:33;102799.13;;;2.13;66.42
32735;BME280;19112;51.076;3.706;2023-03-01T06:31:59;101973.19;;;-2.49;66.05
32735;BME280;19112;51.076;3.706;2023-03-01T06:34:25;102739.25;;;1.84;66.17
32735;BME280;19112;51.076;3.706;2023-03-01T06:36:51;102788.72;;;2.22;66.15
32735;BME280;19112;51.076;3.706;2023-03-01T06:39:17;102789.03;;;2.25;65.90
32735;BME280;19112;51.076;3.706;2023-03-01T06:41:44;102591.63;;;1.04;65.91
32735;BME280;19112;51.076;3.706;2023-03-01T06:44:10;102660.09;;;1.51;65.60
32735;BME280;19112;51.076;3.706;2023-03-01T06:46:36;102673.66;;;1.66;65.62
32735;BME280;19112;51.076;3.706;2023-03-01T06:49:02;102507.72;;;0.75;65.63
32735;BME280;19112;51.076;3.706;2023-03-01T06:51:33;102788.69;;;2.39;65.45
32735;BME280;19112;51.076;3.706;2023-03-01T06:53:59;102757.94;;;2.16;64.64
32735;BME280;19112;51.076;3.706;2023-03-01T06:56:24;102789.00;;;2.42;64.88
32735;BME280;19112;51.076;3.706;2023-03-01T06:58:50;102699.50;;;1.92;64.75
32735;BME280;19112;51.076;3.706;2023-03-01T07:01:16;102715.00;;;2.01;64.64
32735;BME280;19112;51.076;3.706;2023-03-01T07:03:42;102797.94;;;2.54;64.56
32735;BME280;19112;51.076;3.706;2023-03-01T07:06:10;102624.47;;;1.49;64.01
32735;BME280;19112;51.076;3.706;2023-03-01T07:08:35;102688.19;;;2.00;64.12
32735;BME280;19112;51.076;3.706;2023-03-01T07:11:01;102800.06;;;2.67;63.76
32735;BME280;19112;51.076;3.706;2023-03-01T07:13:29;102563.44;;;1.42;63.44
32735;BME280;19112;51.076;3.706;2023-03-01T07:15:56;102799.41;;;2.78;63.18
32735;BME280;19112;51.076;3.706;2023-03-01T07:18:22;102631.28;;;1.83;63.09
32735;BME280;19112;51.076;3.706;2023-03-01T07:20:49;102804.41;;;2.85;63.03
32735;BME280;19112;51.076;3.706;2023-03-01T07:23:15;102406.00;;;0.66;62.25
32735;BME280;19112;51.076;3.706;2023-03-01T07:25:41;102810.03;;;2.90;62.20
32735;BME280;19112;51.076;3.706;2023-03-01T07:28:08;102653.88;;;2.12;61.75
32735;BME280;19112;51.076;3.706;2023-03-01T07:30:33;102548.50;;;1.57;61.34
32735;BME280;19112;51.076;3.706;2023-03-01T07:32:59;102806.34;;;2.97;61.29
32735;BME280;19112;51.076;3.706;2023-03-01T07:35:26;102735.72;;;2.63;61.36
32735;BME280;19112;51.076;3.706;2023-03-01T07:37:52;102804.31;;;3.03;61.12
32735;BME280;19112;51.076;3.706;2023-03-01T07:40:19;102410.56;;;0.68;60.81
32735;BME280;19112;51.076;3.706;2023-03-01T07:42:45;102761.41;;;2.79;60.78
32735;BME280;19112;51.076;3.706;2023-03-01T07:45:11;102697.72;;;2.27;60.87
32735;BME280;19112;51.076;3.706;2023-03-01T07:47:38;102778.09;;;3.00;60.97
32735;BME280;19112;51.076;3.706;2023-03-01T07:50:05;102590.09;;;2.03;60.42
32735;BME280;19112;51.076;3.706;2023-03-01T07:52:31;102791.88;;;3.18;60.26
32735;BME280;19112;51.076;3.706;2023-03-01T07:54:57;102083.41;;;-0.92;60.06
32735;BME280;19112;51.076;3.706;2023-03-01T07:57:23;102779.13;;;3.10;60.42
32735;BME280;19112;51.076;3.706;2023-03-01T07:59:49;102782.28;;;3.17;60.32
32735;BME280;19112;51.076;3.706;2023-03-01T08:02:15;102783.31;;;3.19;59.96
32735;BME280;19112;51.076;3.706;2023-03-01T08:04:41;102446.28;;;1.35;59.56
32735;BME280;19112;51.076;3.706;2023-03-01T08:07:08;102707.72;;;2.78;59.78
32735;BME280;19112;51.076;3.706;2023-03-01T08:09:37;102710.56;;;2.62;59.51
32735;BME280;19112;51.076;3.706;2023-03-01T08:12:04;102783.97;;;3.16;59.69
32735;BME280;19112;51.076;3.706;2023-03-01T08:14:33;102735.19;;;3.03;59.08
32735;BME280;19112;51.076;3.706;2023-03-01T08:16:59;101981.09;;;-1.19;58.46
32735;BME280;19112;51.076;3.706;2023-03-01T08:19:25;102421.34;;;1.26;58.43
32735;BME280;19112;51.076;3.706;2023-03-01T08:21:53;102652.22;;;2.40;58.38
32735;BME280;19112;51.076;3.706;2023-03-01T08:24:19;102759.84;;;3.17;58.22
32735;BME280;19112;51.076;3.706;2023-03-01T08:26:45;102803.69;;;3.41;58.50
32735;BME280;19112;51.076;3.706;2023-03-01T08:29:11;102681.63;;;2.76;57.89
32735;BME280;19112;51.076;3.706;2023-03-01T08:31:39;102715.69;;;2.98;58.29
32735;BME280;19112;51.076;3.706;2023-03-01T08:34:09;102288.50;;;0.71;57.97
32735;BME280;19112;51.076;3.706;2023-03-01T08:36:39;102516.81;;;1.96;57.11
32735;BME280;19112;51.076;3.706;2023-03-01T08:39:08;102733.53;;;3.23;57.39
32735;BME280;19112;51.076;3.706;2023-03-01T08:41:36;102498.34;;;2.01;57.12
32735;BME280;19112;51.076;3.706;2023-03-01T08:44:02;102737.78;;;3.31;57.39
32735;BME280;19112;51.076;3.706;2023-03-01T08:46:31;102785.44;;;3.69;57.11
32735;BME280;19112;51.076;3.706;2023-03-01T08:48:57;102423.16;;;1.64;56.68
32735;BME280;19112;51.076;3.706;2023-03-01T08:51:24;102778.28;;;3.66;56.97
32735;BME280;19112;51.076;3.706;2023-03-01T08:53:51;102623.63;;;2.84;56.92
32735;BME280;19112;51.076;3.706;2023-03-01T08:56:18;102778.09;;;3.74;56.80
32735;BME280;19112;51.076;3.706;2023-03-01T08:58:48;102650.84;;;3.17;57.02
32735;BME280;19112;51.076;3.706;2023-03-01T09:01:18;102679.91;;;3.32;56.41
32735;BME280;19112;51.076;3.706;2023-03-01T09:03:45;102281.00;;;1.10;55.99
32735;BME280;19112;51.076;3.706;2023-03-01T09:06:12;102758.84;;;3.90;56.68
32735;BME280;19112;51.076;3.706;2023-03-01T09:08:43;102606.53;;;3.05;56.57
32735;BME280;19112;51.076;3.706;2023-03-01T09:11:12;102758.19;;;3.93;56.40
32735;BME280;19112;51.076;3.706;2023-03-01T09:13:39;102598.66;;;3.14;56.05
32735;BME280;19112;51.076;3.706;2023-03-01T09:16:07;102390.38;;;2.19;55.70
32735;BME280;19112;51.076;3.706;2023-03-01T09:18:34;102678.91;;;3.59;55.20
32735;BME280;19112;51.076;3.706;2023-03-01T09:21:14;102707.72;;;3.81;55.54
32735;BME280;19112;51.076;3.706;2023-03-01T09:23:44;102359.63;;;1.95;55.49
32735;BME280;19112;51.076;3.706;2023-03-01T09:26:14;102775.47;;;4.11;55.61
32735;BME280;19112;51.076;3.706;2023-03-01T09:28:42;102744.44;;;4.23;56.10
32735;BME280;19112;51.076;3.706;2023-03-01T09:31:10;102743.09;;;4.37;55.27
32735;BME280;19112;51.076;3.706;2023-03-01T09:33:39;102561.94;;;3.38;54.62
32735;BME280;19112;51.076;3.706;2023-03-01T09:36:12;102618.94;;;3.66;54.55
32735;BME280;19112;51.076;3.706;2023-03-01T09:38:38;102738.53;;;4.44;54.60
32735;BME280;19112;51.076;3.706;2023-03-01T09:41:45;102485.22;;;3.03;53.67
32735;BME280;19112;51.076;3.706;2023-03-01T09:47:36;102598.69;;;3.72;53.29
32735;BME280;19112;51.076;3.706;2023-03-01T09:50:21;102736.31;;;4.39;52.92
32735;BME280;19112;51.076;3.706;2023-03-01T09:53:16;102729.53;;;4.41;53.15
32735;BME280;19112;51.076;3.706;2023-03-01T09:55:51;102727.09;;;4.53;53.42
32735;BME280;19112;51.076;3.706;2023-03-01T09:58:39;102409.34;;;2.76;52.52
32735;BME280;19112;51.076;3.706;2023-03-01T10:01:28;102665.41;;;4.31;52.71
32735;BME280;19112;51.076;3.706;2023-03-01T10:04:24;102710.00;;;4.65;51.94
32735;BME280;19112;51.076;3.706;2023-03-01T10:10:39;102687.34;;;4.54;51.88
32735;BME280;19112;51.076;3.706;2023-03-01T10:16:48;102705.34;;;4.91;51.30
32735;BME280;19112;51.076;3.706;2023-03-01T10:19:45;102506.56;;;3.98;51.42
32735;BME280;19112;51.076;3.706;2023-03-01T10:22:24;102707.41;;;5.16;50.73
32735;BME280;19112;51.076;3.706;2023-03-01T10:24:54;102511.91;;;4.19;49.88
32735;BME280;19112;51.076;3.706;2023-03-01T10:27:44;102702.75;;;5.22;49.44
32735;BME280;19112;51.076;3.706;2023-03-01T10:30:32;102653.94;;;4.89;48.99
32735;BME280;19112;51.076;3.706;2023-03-01T10:32:59;102528.94;;;4.16;48.83
32735;BME280;19112;51.076;3.706;2023-03-01T10:35:29;102552.88;;;4.32;49.11
32735;BME280;19112;51.076;3.706;2023-03-01T10:40:35;102666.69;;;5.16;48.40
32735;BME280;19112;51.076;3.706;2023-03-01T10:43:04;102666.75;;;5.48;48.80
32735;BME280;19112;51.076;3.706;2023-03-01T10:45:39;102610.28;;;5.27;48.80
32735;BME280;19112;51.076;3.706;2023-03-01T10:48:20;102683.84;;;5.55;48.32
32735;BME280;19112;51.076;3.706;2023-03-01T10:53:37;102580.03;;;5.07;48.21
32735;BME280;19112;51.076;3.706;2023-03-01T10:56:11;102697.34;;;5.61;48.10
32735;BME280;19112;51.076;3.706;2023-03-01T10:58:55;102620.81;;;5.49;48.11
32735;BME280;19112;51.076;3.706;2023-03-01T11:01:29;102657.94;;;5.78;47.54
32735;BME280;19112;51.076;3.706;2023-03-01T11:06:34;102645.25;;;5.61;47.41
32735;BME280;19112;51.076;3.706;2023-03-01T11:09:33;102535.72;;;5.28;47.31
32735;BME280;19112;51.076;3.706;2023-03-01T11:12:13;102591.41;;;5.72;46.61
32735;BME280;19112;51.076;3.706;2023-03-01T11:14:53;102369.34;;;4.24;46.00
32735;BME280;19112;51.076;3.706;2023-03-01T11:17:31;102640.56;;;5.89;46.57
32735;BME280;19112;51.076;3.706;2023-03-01T11:22:58;102604.56;;;5.73;46.15
32735;BME280;19112;51.076;3.706;2023-03-01T11:25:38;102536.88;;;5.53;46.10
32735;BME280;19112;51.076;3.706;2023-03-01T11:28:06;102586.94;;;5.91;45.42
32735;BME280;19112;51.076;3.706;2023-03-01T11:30:48;102609.59;;;6.14;45.27
32735;BME280;19112;51.076;3.706;2023-03-01T11:33:44;102638.72;;;6.30;45.37
32735;BME280;19112;51.076;3.706;2023-03-01T11:38:53;102597.47;;;6.15;46.20
32735;BME280;19112;51.076;3.706;2023-03-01T11:41:26;102596.69;;;6.16;45.87
32735;BME280;19112;51.076;3.706;2023-03-01T11:44:23;102619.34;;;6.39;45.61
32735;BME280;19112;51.076;3.706;2023-03-01T11:50:42;102488.09;;;5.72;45.41
32735;BME280;19112;51.076;3.706;2023-03-01T11:54:17;102614.09;;;6.27;45.75
32735;BME280;19112;51.076;3.706;2023-03-01T11:56:43;102608.84;;;6.49;45.91
32735;BME280;19112;51.076;3.706;2023-03-01T12:05:20;102343.25;;;5.31;46.25
32735;BME280;19112;51.076;3.706;2023-03-01T12:11:16;102509.66;;;6.25;45.71
32735;BME280;19112;51.076;3.706;2023-03-01T12:19:30;102566.66;;;7.00;43.75
32735;BME280;19112;51.076;3.706;2023-03-01T12:22:32;102417.13;;;6.20;43.93
32735;BME280;19112;51.076;3.706;2023-03-01T12:31:00;102549.72;;;7.18;44.07
32735;BME280;19112;51.076;3.706;2023-03-01T12:33:51;102536.44;;;6.80;44.51
32735;BME280;19112;51.076;3.706;2023-03-01T12:36:49;102559.81;;;6.78;44.24
32735;BME280;19112;51.076;3.706;2023-03-01T12:40:03;102546.06;;;6.81;44.20
32735;BME280;19112;51.076;3.706;2023-03-01T12:43:20;102544.06;;;7.00;44.21
32735;BME280;19112;51.076;3.706;2023-03-01T12:49:36;102535.09;;;7.08;43.67
32735;BME280;19112;51.076;3.706;2023-03-01T12:54:55;102392.63;;;6.30;43.79
32735;BME280;19112;51.076;3.706;2023-03-01T12:57:38;102219.56;;;5.47;43.42
32735;BME280;19112;51.076;3.706;2023-03-01T13:00:30;102512.25;;;7.18;43.05
32735;BME280;19112;51.076;3.706;2023-03-01T13:08:58;102455.63;;;7.05;43.22
32735;BME280;19112;51.076;3.706;2023-03-01T13:11:27;102394.34;;;6.65;43.45
32735;BME280;19112;51.076;3.706;2023-03-01T13:16:54;102491.16;;;7.26;43.05
32735;BME280;19112;51.076;3.706;2023-03-01T13:19:26;102411.81;;;6.89;43.36
32735;BME280;19112;51.076;3.706;2023-03-01T13:21:55;102441.31;;;7.12;42.71
32735;BME280;19112;51.076;3.706;2023-03-01T13:24:41;102476.00;;;7.34;42.76
32735;BME280;19112;51.076;3.706;2023-03-01T13:29:53;102454.50;;;7.50;43.56
32735;BME280;19112;51.076;3.706;2023-03-01T13:32:31;102422.06;;;7.34;43.87
32735;BME280;19112;51.076;3.706;2023-03-01T13:37:43;102419.56;;;7.24;43.63
32735;BME280;19112;51.076;3.706;2023-03-01T13:42:45;102327.72;;;6.81;43.95
32735;BME280;19112;51.076;3.706;2023-03-01T13:45:38;102449.03;;;7.58;44.64
32735;BME280;19112;51.076;3.706;2023-03-01T13:48:22;102189.91;;;6.16;44.94
32735;BME280;19112;51.076;3.706;2023-03-01T13:51:05;102149.78;;;5.90;44.18
32735;BME280;19112;51.076;3.706;2023-03-01T13:53:45;102438.53;;;7.70;43.90
32735;BME280;19112;51.076;3.706;2023-03-01T13:56:38;102195.94;;;6.63;44.07
32735;BME280;19112;51.076;3.706;2023-03-01T13:59:17;102321.53;;;7.04;43.76
32735;BME280;19112;51.076;3.706;2023-03-01T14:01:43;102321.25;;;7.25;44.27
32735;BME280;19112;51.076;3.706;2023-03-01T14:04:29;102210.09;;;6.67;43.55
32735;BME280;19112;51.076;3.706;2023-03-01T14:07:29;102429.19;;;7.99;43.92
32735;BME280;19112;51.076;3.706;2023-03-01T14:10:02;102395.63;;;7.55;44.02
32735;BME280;19112;51.076;3.706;2023-03-01T14:12:52;102431.88;;;7.87;43.68
32735;BME280;19112;51.076;3.706;2023-03-01T14:15:33;102404.28;;;7.79;43.31
32735;BME280;19112;51.076;3.706;2023-03-01T14:18:39;102288.22;;;7.39;43.17
32735;BME280;19112;51.076;3.706;2023-03-01T14:21:13;102077.94;;;6.06;43.22
32735;BME280;19112;51.076;3.706;2023-03-01T14:23:41;102348.25;;;7.62;43.31
32735;BME280;19112;51.076;3.706;2023-03-01T14:26:08;102395.97;;;7.84;44.40
32735;BME280;19112;51.076;3.706;2023-03-01T14:28:36;102403.81;;;7.84;44.30
32735;BME280;19112;51.076;3.706;2023-03-01T14:31:39;102404.41;;;7.80;43.82
32735;BME280;19112;51.076;3.706;2023-03-01T14:34:21;102375.22;;;7.74;44.39
32735;BME280;19112;51.076;3.706;2023-03-01T14:36:47;102371.13;;;7.91;44.37
32735;BME280;19112;51.076;3.706;2023-03-01T14:39:25;102397.94;;;8.00;43.39
32735;BME280;19112;51.076;3.706;2023-03-01T14:41:52;102393.69;;;8.02;42.74
32735;BME280;19112;51.076;3.706;2023-03-01T14:44:23;102336.66;;;7.58;43.24
32735;BME280;19112;51.076;3.706;2023-03-01T14:46:55;102337.41;;;7.69;42.80
32735;BME280;19112;51.076;3.706;2023-03-01T14:49:31;102255.78;;;7.10;42.91